createdAt,value
2018-12-19T00:00:39.690Z,-1.27
2018-12-19T00:03:08.906Z,-1.39
2018-12-19T00:05:38.142Z,-1.32
2018-12-19T00:08:07.462Z,-1.34
2018-12-19T00:10:36.664Z,-1.31
2018-12-19T00:13:05.902Z,-1.36
2018-12-19T00:15:35.022Z,-1.43
2018-12-19T00:18:04.311Z,-1.43
2018-12-19T00:20:33.559Z,-1.36
2018-12-19T00:23:02.886Z,-1.40
2018-12-19T00:25:32.133Z,-1.44
2018-12-19T00:28:01.354Z,-1.99
2018-12-19T00:30:30.463Z,-1.43
2018-12-19T00:32:59.635Z,-1.44
2018-12-19T00:35:28.727Z,-1.52
2018-12-19T00:37:57.855Z,-1.42
2018-12-19T00:40:27.044Z,-1.44
2018-12-19T00:42:56.151Z,-1.49
2018-12-19T00:45:25.455Z,-1.49
2018-12-19T00:47:54.707Z,-1.49
2018-12-19T00:50:23.921Z,-1.49
2018-12-19T00:52:53.203Z,-1.44
2018-12-19T00:55:22.613Z,-1.53
2018-12-19T00:57:51.794Z,-1.61
2018-12-19T01:00:20.913Z,-1.50
2018-12-19T01:02:50.228Z,-1.37
2018-12-19T01:05:19.479Z,-1.13
2018-12-19T01:07:48.623Z,-1.05
2018-12-19T01:10:17.895Z,-1.00
2018-12-19T01:12:47.763Z,-1.28
2018-12-19T01:15:16.984Z,-1.43
2018-12-19T01:17:46.091Z,-1.48
2018-12-19T01:20:15.226Z,-1.54
2018-12-19T01:22:45.057Z,-1.50
2018-12-19T01:25:14.287Z,-1.48
2018-12-19T01:27:43.418Z,-1.29
2018-12-19T01:30:12.631Z,-1.30
2018-12-19T01:32:42.107Z,-1.27
2018-12-19T01:35:11.449Z,-1.43
2018-12-19T01:37:40.825Z,-1.59
2018-12-19T01:40:10.081Z,-1.59
2018-12-19T01:42:39.731Z,-1.52
2018-12-19T01:45:09.591Z,-1.64
2018-12-19T01:47:39.447Z,-1.38
2018-12-19T01:50:08.990Z,-1.36
2018-12-19T01:52:38.135Z,-1.54
2018-12-19T01:55:07.447Z,-1.58
2018-12-19T01:57:36.570Z,-1.45
2018-12-19T02:00:06.083Z,-1.58
2018-12-19T02:02:35.503Z,-1.62
2018-12-19T02:05:04.850Z,-1.53
2018-12-19T02:07:33.991Z,-1.57
2018-12-19T02:10:03.180Z,-1.76
2018-12-19T02:12:32.475Z,-1.64
2018-12-19T02:15:01.629Z,-1.70
2018-12-19T02:17:31.175Z,-1.93
2018-12-19T02:20:00.344Z,-1.98
2018-12-19T02:22:29.455Z,-1.74
2018-12-19T02:24:58.624Z,-1.64
2018-12-19T02:27:28.426Z,-1.60
2018-12-19T02:29:57.898Z,-1.62
2018-12-19T02:32:27.036Z,-1.85
2018-12-19T02:34:56.782Z,-1.92
2018-12-19T02:37:25.910Z,-1.86
2018-12-19T02:39:55.004Z,-1.93
2018-12-19T02:42:24.170Z,-1.97
2018-12-19T02:44:53.384Z,-1.98
2018-12-19T02:47:22.546Z,-1.94
2018-12-19T02:49:51.718Z,-1.94
2018-12-19T02:52:20.841Z,-2.16
2018-12-19T02:54:49.958Z,-2.09
2018-12-19T02:57:19.153Z,-1.91
2018-12-19T02:59:48.261Z,-2.17
2018-12-19T03:02:17.420Z,-2.16
2018-12-19T03:04:46.651Z,-2.23
2018-12-19T03:07:15.773Z,-1.91
2018-12-19T03:09:44.916Z,-1.96
2018-12-19T03:12:14.006Z,-1.91
2018-12-19T03:14:43.127Z,-1.74
2018-12-19T03:17:12.451Z,-1.66
2018-12-19T03:19:41.717Z,-1.69
2018-12-19T03:22:10.836Z,-1.76
2018-12-19T03:24:40.840Z,-1.80
2018-12-19T03:27:09.951Z,-1.84
2018-12-19T03:29:40.108Z,-1.78
2018-12-19T03:32:09.232Z,-1.84
2018-12-19T03:34:38.427Z,-1.79
2018-12-19T03:37:07.542Z,-1.70
2018-12-19T03:39:36.748Z,-1.90
2018-12-19T03:42:05.846Z,-1.89
2018-12-19T03:44:35.010Z,-1.89
2018-12-19T03:47:04.139Z,-1.77
2018-12-19T03:49:33.326Z,-1.77
2018-12-19T03:52:02.634Z,-1.77
2018-12-19T03:54:32.042Z,-1.90
2018-12-19T03:57:01.414Z,-2.24
2018-12-19T03:59:30.826Z,-2.30
2018-12-19T04:01:59.930Z,-2.42
2018-12-19T04:04:29.105Z,-2.16
2018-12-19T04:06:58.510Z,-1.97
2018-12-19T04:09:27.618Z,-1.95
2018-12-19T04:11:56.722Z,-2.02
2018-12-19T04:14:26.207Z,-1.93
2018-12-19T04:16:55.303Z,-1.98
2018-12-19T04:19:24.513Z,-2.04
2018-12-19T04:21:53.794Z,-1.95
2018-12-19T04:24:22.889Z,-1.97
2018-12-19T04:26:52.113Z,-1.74
2018-12-19T04:29:21.848Z,-1.69
2018-12-19T04:31:51.132Z,-1.96
2018-12-19T04:34:20.518Z,-2.17
2018-12-19T04:36:49.646Z,-2.12
2018-12-19T04:39:19.447Z,-2.00
2018-12-19T04:41:48.720Z,-2.00
2018-12-19T04:44:17.849Z,-1.99
2018-12-19T04:46:46.966Z,-1.86
2018-12-19T04:49:16.360Z,-1.83
2018-12-19T04:51:45.561Z,-1.92
2018-12-19T04:54:14.717Z,-1.97
2018-12-19T04:56:43.817Z,-1.78
2018-12-19T04:59:13.019Z,-1.62
2018-12-19T05:01:42.195Z,-1.52
2018-12-19T05:04:11.295Z,-1.57
2018-12-19T05:06:40.404Z,-1.72
2018-12-19T05:09:09.532Z,-1.77
2018-12-19T05:11:38.783Z,-1.75
2018-12-19T05:14:08.029Z,-1.62
2018-12-19T05:16:37.175Z,-1.60
2018-12-19T05:19:06.287Z,-1.64
2018-12-19T05:21:35.606Z,-1.62
2018-12-19T05:24:04.970Z,-1.54
2018-12-19T05:26:34.194Z,-1.42
2018-12-19T05:29:03.523Z,-1.44
2018-12-19T05:31:32.871Z,-1.40
2018-12-19T05:34:02.087Z,-1.25
2018-12-19T05:36:31.183Z,-1.18
2018-12-19T05:39:00.564Z,-1.16
2018-12-19T05:41:30.625Z,-1.33
2018-12-19T05:43:59.750Z,-1.44
2018-12-19T05:46:28.904Z,-1.32
2018-12-19T05:48:58.114Z,-1.25
2018-12-19T05:51:27.472Z,-1.25
2018-12-19T05:53:56.660Z,-1.09
2018-12-19T05:56:25.968Z,-1.13
2018-12-19T05:58:55.330Z,-1.16
2018-12-19T06:01:24.498Z,-1.05
2018-12-19T06:03:53.772Z,-1.08
2018-12-19T06:06:23.013Z,-1.16
2018-12-19T06:08:52.700Z,-1.14
2018-12-19T06:11:21.901Z,-1.08
2018-12-19T06:13:51.443Z,-1.08
2018-12-19T06:16:20.777Z,-1.01
2018-12-19T06:18:50.095Z,-0.92
2018-12-19T06:21:19.405Z,-0.90
2018-12-19T06:23:48.595Z,-0.93
2018-12-19T06:26:17.784Z,-0.89
2018-12-19T06:28:46.904Z,-0.95
2018-12-19T06:31:16.179Z,-0.97
2018-12-19T06:33:45.587Z,-0.88
2018-12-19T06:36:15.011Z,-0.84
2018-12-19T06:38:44.277Z,-0.78
2018-12-19T06:41:13.409Z,-0.72
2018-12-19T06:43:42.670Z,-0.71
2018-12-19T06:46:11.924Z,-0.72
2018-12-19T06:48:41.115Z,-0.68
2018-12-19T06:51:10.275Z,-0.65
2018-12-19T06:53:39.391Z,-0.60
2018-12-19T06:56:08.622Z,-0.76
2018-12-19T06:58:37.786Z,-0.77
2018-12-19T07:01:07.082Z,-0.72
2018-12-19T07:03:36.298Z,-0.62
2018-12-19T07:06:05.418Z,-0.71
2018-12-19T07:08:34.670Z,-0.61
2018-12-19T07:11:04.031Z,-0.54
2018-12-19T07:13:33.288Z,-0.85
2018-12-19T07:16:02.477Z,-0.45
2018-12-19T07:18:31.642Z,-0.45
2018-12-19T07:21:01.209Z,-0.47
2018-12-19T07:23:30.344Z,-0.49
2018-12-19T07:25:59.751Z,-0.43
2018-12-19T07:28:28.862Z,-0.33
2018-12-19T07:30:58.039Z,-0.34
2018-12-19T07:33:27.288Z,-0.27
2018-12-19T07:35:56.566Z,-0.24
2018-12-19T07:38:25.742Z,-0.22
2018-12-19T07:40:54.894Z,-0.12
2018-12-19T07:43:24.162Z,-0.05
2018-12-19T07:45:53.455Z,0.05
2018-12-19T07:48:22.991Z,0.13
2018-12-19T07:50:52.235Z,0.23
2018-12-19T07:53:21.637Z,0.20
2018-12-19T07:55:51.077Z,0.22
2018-12-19T07:58:20.246Z,0.06
2018-12-19T08:00:49.345Z,0.04
2018-12-19T08:03:18.533Z,0.19
2018-12-19T08:05:47.649Z,0.28
2018-12-19T08:08:16.744Z,0.31
2018-12-19T08:10:52.004Z,0.43
2018-12-19T08:13:17.231Z,0.54
2018-12-19T08:15:46.517Z,0.53
2018-12-19T08:18:15.695Z,0.53
2018-12-19T08:20:44.844Z,0.58
2018-12-19T08:23:14.055Z,0.64
2018-12-19T08:25:43.287Z,0.71
2018-12-19T08:28:12.491Z,0.73
2018-12-19T08:30:41.675Z,0.86
2018-12-19T08:33:11.411Z,0.93
2018-12-19T08:35:40.547Z,0.97
2018-12-19T08:38:10.819Z,0.96
2018-12-19T08:40:40.181Z,1.00
2018-12-19T08:43:09.375Z,1.08
2018-12-19T08:45:39.059Z,1.19
2018-12-19T08:48:08.227Z,1.22
2018-12-19T08:50:37.445Z,1.26
2018-12-19T08:53:06.652Z,1.35
2018-12-19T08:55:35.791Z,1.53
2018-12-19T08:58:05.057Z,1.59
2018-12-19T09:00:34.186Z,1.60
2018-12-19T09:03:03.285Z,1.67
2018-12-19T09:05:32.374Z,1.74
2018-12-19T09:08:01.558Z,1.78
2018-12-19T09:10:30.692Z,1.72
2018-12-19T09:12:59.783Z,1.75
2018-12-19T09:15:34.311Z,1.79
2018-12-19T09:18:03.465Z,1.91
2018-12-19T09:20:33.878Z,2.01
2018-12-19T09:23:03.158Z,2.10
2018-12-19T09:25:32.357Z,2.24
2018-12-19T09:28:02.459Z,2.24
2018-12-19T09:30:31.630Z,2.22
2018-12-19T09:33:00.725Z,2.30
2018-12-19T09:35:29.831Z,2.33
2018-12-19T09:37:58.975Z,2.31
2018-12-19T09:40:28.096Z,2.29
2018-12-19T09:42:57.179Z,2.35
2018-12-19T09:45:26.286Z,2.38
2018-12-19T09:47:55.398Z,2.41
2018-12-19T09:50:24.501Z,2.38
2018-12-19T09:52:53.612Z,2.41
2018-12-19T09:55:22.751Z,2.51
2018-12-19T09:57:51.877Z,2.53
2018-12-19T10:00:26.390Z,2.62
2018-12-19T10:02:55.904Z,2.46
2018-12-19T10:05:25.386Z,2.72
2018-12-19T10:07:54.490Z,2.87
2018-12-19T10:10:23.720Z,2.98
2018-12-19T10:12:52.896Z,3.17
2018-12-19T10:15:21.985Z,3.27
2018-12-19T10:17:51.094Z,3.30
2018-12-19T10:20:20.240Z,3.39
2018-12-19T10:22:51.659Z,3.87
2018-12-19T10:25:20.960Z,3.94
2018-12-19T10:27:50.126Z,3.61
2018-12-19T10:30:19.260Z,3.49
2018-12-19T10:32:52.685Z,3.41
2018-12-19T10:35:21.875Z,3.43
2018-12-19T10:37:51.433Z,3.31
2018-12-19T10:40:20.739Z,3.21
2018-12-19T10:42:49.934Z,3.22
2018-12-19T10:45:19.079Z,3.18
2018-12-19T10:47:48.172Z,3.30
2018-12-19T10:50:17.292Z,3.25
2018-12-19T10:52:46.492Z,3.27
2018-12-19T10:55:15.605Z,3.29
2018-12-19T10:57:44.711Z,3.34
2018-12-19T11:00:19.312Z,3.32
2018-12-19T11:02:48.385Z,3.36
2018-12-19T11:05:17.514Z,3.29
2018-12-19T11:07:46.603Z,3.29
2018-12-19T11:10:15.825Z,3.22
2018-12-19T11:12:44.921Z,3.30
2018-12-19T11:15:14.020Z,3.36
2018-12-19T11:17:43.213Z,3.30
2018-12-19T11:20:12.311Z,3.41
2018-12-19T11:22:41.406Z,3.41
2018-12-19T11:25:10.535Z,3.35
2018-12-19T11:27:39.884Z,3.24
2018-12-19T11:30:09.569Z,3.33
2018-12-19T11:32:38.734Z,3.41
2018-12-19T11:35:08.411Z,3.38
2018-12-19T11:37:37.603Z,3.34
2018-12-19T11:40:08.425Z,3.41
2018-12-19T11:42:37.535Z,3.42
2018-12-19T11:45:06.791Z,3.49
2018-12-19T11:47:35.915Z,3.47
2018-12-19T11:50:06.537Z,3.57
2018-12-19T11:52:35.663Z,3.63
2018-12-19T11:55:05.568Z,3.66
2018-12-19T11:57:34.839Z,3.83
2018-12-19T12:00:04.830Z,3.79
2018-12-19T12:02:33.976Z,3.70
2018-12-19T12:05:03.270Z,3.75
2018-12-19T12:07:32.449Z,3.88
2018-12-19T12:10:01.584Z,3.77
2018-12-19T12:12:30.785Z,3.87
2018-12-19T12:14:59.955Z,3.97
2018-12-19T12:17:29.091Z,3.98
2018-12-19T12:19:58.192Z,3.94
2018-12-19T12:22:27.407Z,3.99
2018-12-19T12:24:56.548Z,4.04
2018-12-19T12:27:25.849Z,4.05
2018-12-19T12:29:54.947Z,4.04
2018-12-19T12:32:24.047Z,3.98
2018-12-19T12:34:53.128Z,3.90
2018-12-19T12:37:22.228Z,3.83
2018-12-19T12:39:51.339Z,3.90
2018-12-19T12:42:20.419Z,3.84
2018-12-19T12:44:49.887Z,3.98
2018-12-19T12:47:18.993Z,3.92
2018-12-19T12:49:48.168Z,3.96
2018-12-19T12:52:17.339Z,4.01
2018-12-19T12:54:46.462Z,4.08
2018-12-19T12:57:15.575Z,4.01
2018-12-19T12:59:44.658Z,4.02
2018-12-19T13:02:13.890Z,4.03
2018-12-19T13:04:43.019Z,4.01
2018-12-19T13:07:12.180Z,3.97
2018-12-19T13:09:41.298Z,4.05
2018-12-19T13:12:10.402Z,4.03
2018-12-19T13:14:39.590Z,4.07
2018-12-19T13:17:08.706Z,4.02
2018-12-19T13:19:37.791Z,4.09
2018-12-19T13:22:06.984Z,4.07
2018-12-19T13:24:36.134Z,4.05
2018-12-19T13:27:05.214Z,4.05
2018-12-19T13:29:34.399Z,3.97
2018-12-19T13:32:03.621Z,4.00
2018-12-19T13:34:32.712Z,3.99
2018-12-19T13:37:01.810Z,3.74
2018-12-19T13:39:31.129Z,3.94
2018-12-19T13:42:05.517Z,4.01
2018-12-19T13:44:31.321Z,3.99
2018-12-19T13:47:00.509Z,4.00
2018-12-19T13:49:29.609Z,3.94
2018-12-19T13:51:58.699Z,3.96
2018-12-19T13:54:27.823Z,4.00
2018-12-19T13:56:57.133Z,4.00
2018-12-19T13:59:26.223Z,3.90
2018-12-19T14:01:55.343Z,3.94
2018-12-19T14:04:24.449Z,3.89
2018-12-19T14:06:53.563Z,3.88
2018-12-19T14:09:22.681Z,3.77
2018-12-19T14:11:51.783Z,3.79
2018-12-19T14:14:20.931Z,3.69
2018-12-19T14:16:50.077Z,3.70
2018-12-19T14:19:19.269Z,3.67
2018-12-19T14:21:48.343Z,3.64
2018-12-19T14:24:17.604Z,3.67
2018-12-19T14:26:46.735Z,3.59
2018-12-19T14:29:15.839Z,3.64
2018-12-19T14:31:44.949Z,3.59
2018-12-19T14:34:14.014Z,3.49
2018-12-19T14:36:43.262Z,3.41
2018-12-19T14:39:12.632Z,3.55
2018-12-19T14:41:42.134Z,3.54
2018-12-19T14:44:11.247Z,3.48
2018-12-19T14:46:40.358Z,3.39
2018-12-19T14:49:13.997Z,3.37
2018-12-19T14:51:40.865Z,3.44
2018-12-19T14:54:10.387Z,3.43
2018-12-19T14:56:39.470Z,3.44
2018-12-19T14:59:08.794Z,3.39
2018-12-19T15:01:37.930Z,3.30
2018-12-19T15:04:07.018Z,3.22
2018-12-19T15:06:36.882Z,3.13
2018-12-19T15:09:07.406Z,3.21
2018-12-19T15:11:36.560Z,3.27
2018-12-19T15:14:05.750Z,3.35
2018-12-19T15:16:34.882Z,3.35
2018-12-19T15:19:04.222Z,3.29
2018-12-19T15:21:33.450Z,3.22
2018-12-19T15:24:02.538Z,3.23
2018-12-19T15:26:31.629Z,3.26
2018-12-19T15:29:00.909Z,3.21
2018-12-19T15:31:30.097Z,3.18
2018-12-19T15:33:59.179Z,3.17
2018-12-19T15:36:28.743Z,3.20
2018-12-19T15:38:57.799Z,3.20
2018-12-19T15:41:26.891Z,3.20
2018-12-19T15:43:56.007Z,3.14
2018-12-19T15:46:25.120Z,3.23
2018-12-19T15:48:54.204Z,3.28
2018-12-19T15:51:23.431Z,3.28
2018-12-19T15:53:52.547Z,3.32
2018-12-19T15:56:21.811Z,3.30
2018-12-19T15:58:50.927Z,3.29
2018-12-19T16:01:26.721Z,3.31
2018-12-19T16:03:56.574Z,3.35
2018-12-19T16:06:25.675Z,3.25
2018-12-19T16:08:54.768Z,3.19
2018-12-19T16:11:23.889Z,3.16
2018-12-19T16:13:52.994Z,3.21
2018-12-19T16:16:22.089Z,3.23
2018-12-19T16:18:51.173Z,3.26
2018-12-19T16:21:20.298Z,3.26
2018-12-19T16:23:49.399Z,3.28
2018-12-19T16:26:18.490Z,3.28
2018-12-19T16:28:47.568Z,3.30
2018-12-19T16:31:16.787Z,3.28
2018-12-19T16:33:45.937Z,3.30
2018-12-19T16:36:15.102Z,3.27
2018-12-19T16:38:44.314Z,3.26
2018-12-19T16:41:13.498Z,3.28
2018-12-19T16:43:42.594Z,3.26
2018-12-19T16:46:12.114Z,3.19
2018-12-19T16:48:41.191Z,3.21
2018-12-19T16:51:10.282Z,3.21
2018-12-19T16:53:39.627Z,3.12
2018-12-19T16:56:08.802Z,3.12
2018-12-19T16:58:37.998Z,3.12
2018-12-19T17:01:07.326Z,3.08
2018-12-19T17:03:36.428Z,3.08
2018-12-19T17:06:05.606Z,3.04
2018-12-19T17:08:34.814Z,3.07
2018-12-19T17:11:04.090Z,3.07
2018-12-19T17:13:33.224Z,3.07
2018-12-19T17:16:02.488Z,2.99
2018-12-19T17:18:31.604Z,2.92
2018-12-19T17:21:00.770Z,2.90
2018-12-19T17:23:29.882Z,2.94
2018-12-19T17:25:58.957Z,2.91
2018-12-19T17:28:28.073Z,2.87
2018-12-19T17:30:57.194Z,2.86
2018-12-19T17:33:26.266Z,2.76
2018-12-19T17:35:55.457Z,2.77
2018-12-19T17:38:24.711Z,2.76
2018-12-19T17:40:53.857Z,2.79
2018-12-19T17:43:22.954Z,2.80
2018-12-19T17:45:52.075Z,2.69
2018-12-19T17:48:21.172Z,2.74
2018-12-19T17:50:50.370Z,2.67
2018-12-19T17:53:19.561Z,2.63
2018-12-19T17:55:48.636Z,2.71
2018-12-19T17:58:17.743Z,2.70
2018-12-19T18:00:47.029Z,2.71
2018-12-19T18:03:16.122Z,2.67
2018-12-19T18:05:45.296Z,2.66
2018-12-19T18:08:14.491Z,2.66
2018-12-19T18:10:43.683Z,2.71
2018-12-19T18:13:12.819Z,2.78
2018-12-19T18:15:41.915Z,2.78
2018-12-19T18:18:11.006Z,2.80
2018-12-19T18:20:40.122Z,2.74
2018-12-19T18:23:09.319Z,2.70
2018-12-19T18:25:38.516Z,2.74
2018-12-19T18:28:07.913Z,2.72
2018-12-19T18:30:37.009Z,2.65
2018-12-19T18:33:06.145Z,2.57
2018-12-19T18:35:35.228Z,2.49
2018-12-19T18:38:04.446Z,2.40
2018-12-19T18:40:33.569Z,2.32
2018-12-19T18:43:02.653Z,2.23
2018-12-19T18:45:31.734Z,2.09
2018-12-19T18:48:00.875Z,1.94
2018-12-19T18:50:29.970Z,1.87
2018-12-19T18:52:59.087Z,1.87
2018-12-19T18:55:28.285Z,1.76
2018-12-19T18:57:57.455Z,1.67
2018-12-19T19:00:34.732Z,1.73
2018-12-19T19:03:04.439Z,1.63
2018-12-19T19:05:33.679Z,1.64
2018-12-19T19:08:03.071Z,1.73
2018-12-19T19:10:32.205Z,1.85
2018-12-19T19:13:01.310Z,1.90
2018-12-19T19:15:30.591Z,1.94
2018-12-19T19:17:59.963Z,1.96
2018-12-19T19:20:29.139Z,1.78
2018-12-19T19:22:59.059Z,1.90
2018-12-19T19:25:28.263Z,1.88
2018-12-19T19:27:57.336Z,1.91
2018-12-19T19:30:26.635Z,1.92
2018-12-19T19:32:55.746Z,1.97
2018-12-19T19:35:24.944Z,1.89
2018-12-19T19:37:54.125Z,1.75
2018-12-19T19:40:23.247Z,1.65
2018-12-19T19:42:52.402Z,1.48
2018-12-19T19:45:21.484Z,1.46
2018-12-19T19:47:50.731Z,1.36
2018-12-19T19:50:19.831Z,1.46
2018-12-19T19:52:50.666Z,1.53
2018-12-19T19:55:19.907Z,1.64
2018-12-19T19:57:49.129Z,1.75
2018-12-19T20:00:22.382Z,1.87
2018-12-19T20:02:51.592Z,1.94
2018-12-19T20:05:20.677Z,2.05
2018-12-19T20:07:49.783Z,2.12
2018-12-19T20:10:18.853Z,2.18
2018-12-19T20:12:47.968Z,2.11
2018-12-19T20:15:17.099Z,2.09
2018-12-19T20:17:46.159Z,2.07
2018-12-19T20:20:16.533Z,2.09
2018-12-19T20:22:45.859Z,2.11
2018-12-19T20:25:14.944Z,2.10
2018-12-19T20:27:44.061Z,2.09
2018-12-19T20:30:13.303Z,2.11
2018-12-19T20:32:42.407Z,2.05
2018-12-19T20:35:11.703Z,1.82
2018-12-19T20:37:40.819Z,1.90
2018-12-19T20:40:09.914Z,1.78
2018-12-19T20:42:39.101Z,1.70
2018-12-19T20:45:08.202Z,1.84
2018-12-19T20:47:37.434Z,1.94
2018-12-19T20:50:07.128Z,1.76
2018-12-19T20:52:36.223Z,1.73
2018-12-19T20:55:06.118Z,1.69
2018-12-19T20:57:35.423Z,1.81
2018-12-19T21:00:05.966Z,1.81
2018-12-19T21:02:35.058Z,1.76
2018-12-19T21:05:04.389Z,1.80
2018-12-19T21:07:34.091Z,1.73
2018-12-19T21:10:03.646Z,1.77
2018-12-19T21:12:32.736Z,1.86
2018-12-19T21:15:02.023Z,1.67
2018-12-19T21:17:36.491Z,1.87
2018-12-19T21:20:06.313Z,1.90
2018-12-19T21:22:35.820Z,1.92
2018-12-19T21:25:05.235Z,1.86
2018-12-19T21:27:34.439Z,1.86
2018-12-19T21:30:04.029Z,1.86
2018-12-19T21:32:33.112Z,1.76
2018-12-19T21:35:02.207Z,1.75
2018-12-19T21:37:31.663Z,1.84
2018-12-19T21:40:00.841Z,1.92
2018-12-19T21:42:30.673Z,1.64
2018-12-19T21:44:59.993Z,1.64
2018-12-19T21:47:29.180Z,1.78
2018-12-19T21:49:58.600Z,1.65
2018-12-19T21:52:27.737Z,1.73
2018-12-19T21:54:56.923Z,1.84
2018-12-19T21:57:26.145Z,1.73
2018-12-19T21:59:55.390Z,1.79
2018-12-19T22:02:24.519Z,1.74
2018-12-19T22:04:53.771Z,1.71
2018-12-19T22:07:22.951Z,1.85
2018-12-19T22:09:52.130Z,1.62
2018-12-19T22:12:21.287Z,1.69
2018-12-19T22:14:50.370Z,1.56
2018-12-19T22:17:24.851Z,1.66
2018-12-19T22:19:54.128Z,1.67
2018-12-19T22:22:23.378Z,1.67
2018-12-19T22:24:52.580Z,1.60
2018-12-19T22:27:21.919Z,1.60
2018-12-19T22:29:51.145Z,1.71
2018-12-19T22:32:20.469Z,1.67
2018-12-19T22:34:49.613Z,1.56
2018-12-19T22:37:18.856Z,1.55
2018-12-19T22:39:48.106Z,1.70
2018-12-19T22:42:17.379Z,1.60
2018-12-19T22:44:46.550Z,1.74
2018-12-19T22:47:15.787Z,1.63
2018-12-19T22:49:44.941Z,1.53
2018-12-19T22:52:14.092Z,1.52
2018-12-19T22:54:43.323Z,1.58
2018-12-19T22:57:12.696Z,1.57
2018-12-19T22:59:42.015Z,1.61
2018-12-19T23:02:16.630Z,1.57
2018-12-19T23:04:45.908Z,1.49
2018-12-19T23:07:15.106Z,1.52
2018-12-19T23:09:44.294Z,1.56
2018-12-19T23:12:13.602Z,1.54
2018-12-19T23:14:42.834Z,1.55
2018-12-19T23:17:17.409Z,1.53
2018-12-19T23:19:47.034Z,1.50
2018-12-19T23:22:16.314Z,1.55
2018-12-19T23:24:45.613Z,1.56
2018-12-19T23:27:14.839Z,1.57
2018-12-19T23:29:43.954Z,1.61
2018-12-19T23:32:15.103Z,1.60
2018-12-19T23:34:44.338Z,1.63
2018-12-19T23:37:13.580Z,1.61
2018-12-19T23:39:42.786Z,1.60
2018-12-19T23:42:11.966Z,1.82
2018-12-19T23:44:41.038Z,1.89
2018-12-19T23:47:10.385Z,1.89
2018-12-19T23:49:39.490Z,1.93
2018-12-19T23:52:08.711Z,1.90
2018-12-19T23:54:38.073Z,1.80
2018-12-19T23:57:07.339Z,1.81
2018-12-19T23:59:36.519Z,1.84
